Time;durP1;ratioP1;P1;durP2;ratioP2;P2;SDS_P1;SDS_P2;PMS_P1;PMS_P2;Temp;Humidity;BMP_temperature;BMP_pressure;BME280_temperature;BME280_humidity;BME280_pressure;Samples;Min_cycle;Max_cycle;Signal;HPM_P1;HPM_P2
2022/12/05 00:00:49;;;;;;;16.40;10.73;;;3.90;99.90;;;;;;5073068;28;20729;-49
2022/12/05 00:03:16;;;;;;;14.83;9.83;;;3.90;99.90;;;;;;5073899;28;20630;-49
2022/12/05 00:05:43;;;;;;;15.63;9.90;;;3.90;99.90;;;;;;5065293;28;20204;-49
2022/12/05 00:08:10;;;;;;;13.87;9.10;;;3.90;99.90;;;;;;5073281;28;20226;-48
2022/12/05 00:10:39;;;;;;;14.80;7.93;;;3.90;99.90;;;;;;5065272;28;20258;-49
2022/12/05 00:13:07;;;;;;;14.10;7.90;;;3.80;99.90;;;;;;5073966;28;20301;-49
2022/12/05 00:15:37;;;;;;;11.00;7.47;;;3.80;99.90;;;;;;5073349;28;20253;-50
2022/12/05 00:18:04;;;;;;;10.53;7.93;;;3.80;99.90;;;;;;5065835;28;20268;-49
2022/12/05 00:20:31;;;;;;;10.17;6.20;;;3.80;99.90;;;;;;5071181;28;20231;-48
2022/12/05 00:22:58;;;;;;;10.00;7.00;;;3.80;99.90;;;;;;5074334;28;20206;-48
2022/12/05 00:25:25;;;;;;;9.57;7.27;;;3.80;99.90;;;;;;5074089;28;20692;-49
2022/12/05 00:27:53;;;;;;;9.90;7.23;;;3.60;99.90;;;;;;5073948;28;20728;-50
2022/12/05 00:30:20;;;;;;;11.43;6.70;;;3.50;99.90;;;;;;5064842;28;20242;-49
2022/12/05 00:32:47;;;;;;;13.37;7.50;;;3.50;99.90;;;;;;5069880;28;20222;-49
2022/12/05 00:35:14;;;;;;;12.60;7.77;;;3.50;99.90;;;;;;5073118;28;20253;-50
2022/12/05 00:37:41;;;;;;;10.20;8.47;;;3.60;99.90;;;;;;5073907;28;20849;-50
2022/12/05 00:40:09;;;;;;;16.57;10.40;;;3.50;99.90;;;;;;5073615;28;20207;-49
2022/12/05 00:42:36;;;;;;;13.33;8.30;;;3.50;99.90;;;;;;5072763;28;20210;-49
2022/12/05 00:45:05;;;;;;;14.63;8.70;;;3.40;99.90;;;;;;5071352;28;20233;-49
2022/12/05 00:47:35;;;;;;;17.77;9.50;;;3.40;99.90;;;;;;5073494;28;20773;-50
2022/12/05 00:50:02;;;;;;;11.73;7.93;;;3.40;99.90;;;;;;5063338;28;20208;-49
2022/12/05 00:52:28;;;;;;;14.27;8.53;;;3.40;99.90;;;;;;5071946;28;20574;-49
2022/12/05 00:54:55;;;;;;;16.17;8.47;;;3.40;99.90;;;;;;5072902;28;20261;-48
2022/12/05 00:57:22;;;;;;;13.23;9.13;;;3.40;99.90;;;;;;5070956;28;20231;-49
2022/12/05 00:59:49;;;;;;;14.30;8.90;;;3.40;99.90;;;;;;5064302;28;20261;-50
2022/12/05 01:02:18;;;;;;;13.03;7.90;;;3.40;99.90;;;;;;5073516;28;20754;-49
2022/12/05 01:04:45;;;;;;;13.67;8.07;;;3.40;99.90;;;;;;5071824;28;20203;-50
2022/12/05 01:07:12;;;;;;;15.30;9.70;;;3.40;99.90;;;;;;5073378;28;20271;-49
2022/12/05 01:09:41;;;;;;;13.07;8.10;;;3.40;99.90;;;;;;5071478;28;20208;-50
2022/12/05 01:12:08;;;;;;;16.27;9.27;;;3.40;99.90;;;;;;5073348;28;20219;-49
2022/12/05 01:14:35;;;;;;;11.10;8.00;;;3.40;99.90;;;;;;5072518;28;20211;-50
2022/12/05 01:17:02;;;;;;;11.73;8.03;;;3.40;99.90;;;;;;5073455;28;20277;-49
2022/12/05 01:19:32;;;;;;;13.70;9.13;;;3.30;99.90;;;;;;5071261;28;20203;-49
2022/12/05 01:22:00;;;;;;;14.57;9.40;;;3.40;99.90;;;;;;5069095;28;20248;-50
2022/12/05 01:24:28;;;;;;;12.60;8.80;;;3.40;99.90;;;;;;5069682;28;20202;-49
2022/12/05 01:26:56;;;;;;;15.00;8.53;;;3.40;99.90;;;;;;5072784;28;20731;-49
2022/12/05 01:29:24;;;;;;;16.27;9.73;;;3.50;99.90;;;;;;5072990;28;20203;-49
2022/12/05 01:31:51;;;;;;;13.40;8.70;;;3.50;99.90;;;;;;5069996;28;20640;-50
2022/12/05 01:34:19;;;;;;;18.27;10.67;;;3.50;99.90;;;;;;5070231;28;20246;-48
2022/12/05 01:36:48;;;;;;;15.37;9.83;;;3.50;99.90;;;;;;5071841;28;20275;-49
2022/12/05 01:39:15;;;;;;;13.90;8.87;;;3.50;99.90;;;;;;5067624;28;20199;-49
2022/12/05 01:41:45;;;;;;;11.70;8.33;;;3.50;99.90;;;;;;5072759;28;20199;-50
2022/12/05 01:44:50;;;;;;;12.27;8.53;;;3.50;99.90;;;;;;5070883;28;20226;-49
2022/12/05 01:47:19;;;;;;;14.93;9.80;;;3.50;99.90;;;;;;5060433;28;20224;-49
2022/12/05 01:49:46;;;;;;;11.47;7.53;;;3.50;99.90;;;;;;5068741;28;20212;-49
2022/12/05 01:52:19;;;;;;;14.40;8.97;;;3.50;99.90;;;;;;5063770;28;20218;-48
2022/12/05 01:54:48;;;;;;;16.30;9.83;;;3.50;99.90;;;;;;5070203;28;20257;-49
2022/12/05 01:57:15;;;;;;;12.37;9.00;;;3.50;99.90;;;;;;5069549;28;20235;-48
2022/12/05 01:59:47;;;;;;;14.23;8.30;;;3.50;99.90;;;;;;5072870;28;20595;-50
2022/12/05 02:02:14;;;;;;;12.13;7.97;;;3.60;99.90;;;;;;5072009;28;20199;-49
2022/12/05 02:04:51;;;;;;;14.40;8.90;;;3.50;99.90;;;;;;5063206;28;20206;-49
2022/12/05 02:07:20;;;;;;;13.67;8.60;;;3.50;99.90;;;;;;5073258;28;20226;-49
2022/12/05 02:09:50;;;;;;;16.83;8.90;;;3.50;99.90;;;;;;5071869;28;20581;-50
2022/12/05 02:12:19;;;;;;;13.13;8.73;;;3.40;99.90;;;;;;5070116;28;20215;-50
2022/12/05 02:14:56;;;;;;;12.83;8.67;;;3.40;99.90;;;;;;5071785;28;20284;-50
2022/12/05 02:17:33;;;;;;;16.90;8.73;;;3.40;99.90;;;;;;5072584;28;20229;-50
2022/12/05 02:20:10;;;;;;;13.20;7.70;;;3.50;99.90;;;;;;5071829;28;20203;-49
2022/12/05 02:23:19;;;;;;;13.83;8.37;;;3.50;99.90;;;;;;5070235;28;20195;-49
2022/12/05 02:26:07;;;;;;;13.37;8.13;;;3.50;99.90;;;;;;5070050;28;20203;-49
2022/12/05 02:28:50;;;;;;;14.00;8.83;;;3.40;99.90;;;;;;5068330;28;20237;-50
2022/12/05 02:31:26;;;;;;;15.53;9.10;;;3.40;99.90;;;;;;5062578;28;20805;-49
2022/12/05 02:34:04;;;;;;;16.83;10.07;;;3.50;99.90;;;;;;5070454;28;20205;-50
2022/12/05 02:36:37;;;;;;;16.40;10.40;;;3.50;99.90;;;;;;5072407;28;20203;-49
2022/12/05 02:39:18;;;;;;;16.87;11.73;;;3.50;99.90;;;;;;5072446;28;20214;-48
2022/12/05 02:41:51;;;;;;;10.10;8.37;;;3.50;99.90;;;;;;5070343;28;20206;-49
2022/12/05 02:44:23;;;;;;;15.23;9.47;;;3.50;99.90;;;;;;5068482;28;20288;-48
2022/12/05 02:46:53;;;;;;;17.23;9.40;;;3.50;99.90;;;;;;5070571;28;20241;-48
2022/12/05 02:49:24;;;;;;;15.03;8.37;;;3.50;99.90;;;;;;5070472;28;20215;-49
2022/12/05 02:51:56;;;;;;;15.00;9.03;;;3.50;99.90;;;;;;5069812;28;20629;-49
2022/12/05 02:54:27;;;;;;;13.50;9.43;;;3.50;99.90;;;;;;5070121;28;20206;-48
2022/12/05 02:56:56;;;;;;;16.57;9.33;;;3.50;99.90;;;;;;5070926;28;20231;-49
2022/12/05 02:59:23;;;;;;;14.23;9.27;;;3.50;99.90;;;;;;5071209;28;20209;-49
2022/12/05 03:01:52;;;;;;;14.87;8.13;;;3.50;99.90;;;;;;5072247;28;20197;-49
2022/12/05 03:04:22;;;;;;;18.10;10.70;;;3.40;99.90;;;;;;5064406;28;20207;-48
2022/12/05 03:06:53;;;;;;;13.17;9.10;;;3.40;99.90;;;;;;5067981;28;20637;-50
2022/12/05 03:09:24;;;;;;;15.57;10.43;;;3.40;99.90;;;;;;5066182;28;20208;-50
2022/12/05 03:11:54;;;;;;;12.83;8.63;;;3.40;99.90;;;;;;5071017;28;20202;-49
2022/12/05 03:14:25;;;;;;;15.37;9.10;;;3.40;99.90;;;;;;5070503;28;20226;-49
2022/12/05 03:16:57;;;;;;;13.37;9.07;;;3.40;99.90;;;;;;5069910;28;20233;-49
2022/12/05 03:19:27;;;;;;;14.10;9.93;;;3.40;99.90;;;;;;5062728;28;20195;-50
2022/12/05 03:21:59;;;;;;;13.60;8.37;;;3.40;99.90;;;;;;5071704;28;20217;-49
2022/12/05 03:24:27;;;;;;;14.20;9.00;;;3.40;99.90;;;;;;5071443;28;20204;-49
2022/12/05 03:27:03;;;;;;;13.17;8.53;;;3.40;99.90;;;;;;5070904;28;20249;-50
2022/12/05 03:29:39;;;;;;;13.57;8.27;;;3.30;99.90;;;;;;5071946;28;20221;-50
2022/12/05 03:32:15;;;;;;;13.23;8.40;;;3.30;99.90;;;;;;5069411;28;20756;-50
2022/12/05 03:34:51;;;;;;;12.87;8.57;;;3.20;99.90;;;;;;5070178;28;20636;-50
2022/12/05 03:37:34;;;;;;;14.03;9.40;;;3.30;99.90;;;;;;5071695;28;20244;-49
2022/12/05 03:40:08;;;;;;;16.13;9.50;;;3.20;99.90;;;;;;5062546;28;20199;-49
2022/12/05 03:42:39;;;;;;;16.20;9.37;;;3.20;99.90;;;;;;5071499;28;20250;-50
2022/12/05 03:45:11;;;;;;;13.57;9.83;;;3.20;99.90;;;;;;5069082;28;20202;-49
2022/12/05 03:47:48;;;;;;;12.00;8.90;;;3.20;99.90;;;;;;5069018;28;20716;-49
2022/12/05 03:50:22;;;;;;;15.47;9.57;;;3.10;99.90;;;;;;5065370;28;20206;-49
2022/12/05 03:52:55;;;;;;;12.63;8.63;;;3.10;99.90;;;;;;5071660;28;20223;-49
2022/12/05 03:55:24;;;;;;;15.47;9.57;;;3.10;99.90;;;;;;5071504;28;20208;-50
2022/12/05 03:57:58;;;;;;;17.47;9.37;;;3.00;99.90;;;;;;5061976;28;20256;-48
2022/12/05 04:00:27;;;;;;;15.50;9.80;;;3.00;99.90;;;;;;5070534;28;20202;-50
2022/12/05 04:03:02;;;;;;;14.93;9.47;;;3.00;99.90;;;;;;5068630;28;20199;-48
2022/12/05 04:05:35;;;;;;;10.50;8.03;;;3.10;99.90;;;;;;5072352;28;20207;-50
2022/12/05 04:08:05;;;;;;;12.30;8.90;;;3.10;99.90;;;;;;5055883;28;20231;-49
2022/12/05 04:10:47;;;;;;;16.57;8.87;;;3.10;99.90;;;;;;5071149;28;20203;-51
2022/12/05 04:13:17;;;;;;;15.50;9.60;;;3.10;99.90;;;;;;5067588;28;20721;-50
2022/12/05 04:18:39;;;;;;;13.27;8.60;;;3.10;99.90;;;;;;5070750;28;20223;-50
2022/12/05 04:26:34;;;;;;;16.20;10.03;;;3.20;99.90;;;;;;5074408;28;20203;-49
2022/12/05 04:29:05;;;;;;;14.47;9.33;;;3.20;99.90;;;;;;5075080;28;20203;-48
2022/12/05 04:31:37;;;;;;;13.60;9.90;;;3.30;99.90;;;;;;5072773;28;20211;-49
2022/12/05 04:34:09;;;;;;;17.60;8.67;;;3.40;99.90;;;;;;5063937;28;20223;-48
2022/12/05 04:36:42;;;;;;;12.77;8.80;;;3.30;99.90;;;;;;5073319;28;20203;-49
2022/12/05 04:39:14;;;;;;;16.97;10.27;;;3.30;99.90;;;;;;5072620;28;20214;-49
2022/12/05 04:41:45;;;;;;;18.47;10.50;;;3.30;99.90;;;;;;5064935;28;20604;-50
2022/12/05 04:44:17;;;;;;;16.70;10.67;;;3.30;99.90;;;;;;5072794;28;20214;-49
2022/12/05 04:46:46;;;;;;;20.40;11.23;;;3.30;99.90;;;;;;5068125;28;20208;-50
2022/12/05 04:49:19;;;;;;;16.33;9.97;;;3.30;99.90;;;;;;5074281;28;20636;-49
2022/12/05 04:51:49;;;;;;;16.50;9.80;;;3.30;99.90;;;;;;5071613;28;20199;-50
2022/12/05 04:54:21;;;;;;;18.13;11.20;;;3.30;99.90;;;;;;5070349;28;20225;-49
2022/12/05 04:56:52;;;;;;;16.93;11.00;;;3.40;99.90;;;;;;5071237;28;20699;-49
2022/12/05 04:59:19;;;;;;;14.83;10.63;;;3.40;99.90;;;;;;5072519;28;20216;-49
2022/12/05 05:01:51;;;;;;;14.97;10.13;;;3.40;99.90;;;;;;5071866;28;20211;-49
2022/12/05 05:04:22;;;;;;;16.00;9.97;;;3.40;99.90;;;;;;5071437;28;20664;-50
2022/12/05 05:06:49;;;;;;;17.60;11.37;;;3.40;99.90;;;;;;5074008;28;20228;-49
2022/12/05 05:09:16;;;;;;;18.00;11.07;;;3.40;99.90;;;;;;5069652;28;20214;-50
2022/12/05 05:11:43;;;;;;;19.10;10.80;;;3.40;99.90;;;;;;5069938;28;20204;-50
2022/12/05 05:14:10;;;;;;;20.67;12.50;;;3.40;99.90;;;;;;5070801;28;20217;-49
2022/12/05 05:16:40;;;;;;;17.43;10.43;;;3.40;99.90;;;;;;5073464;28;20681;-49
2022/12/05 05:19:08;;;;;;;18.67;11.23;;;3.40;99.90;;;;;;5074150;28;20219;-50
2022/12/05 05:21:39;;;;;;;17.40;10.57;;;3.40;99.90;;;;;;5072755;28;20202;-48
2022/12/05 05:24:10;;;;;;;18.40;11.70;;;3.40;99.90;;;;;;5071718;28;20202;-49
2022/12/05 05:26:39;;;;;;;20.27;12.17;;;3.40;99.90;;;;;;5070852;28;20257;-49
2022/12/05 05:29:08;;;;;;;21.33;11.53;;;3.40;99.90;;;;;;5073334;28;20230;-48
2022/12/05 05:31:36;;;;;;;22.10;12.67;;;3.50;99.90;;;;;;5073462;28;20205;-50
2022/12/05 05:34:03;;;;;;;17.33;11.33;;;3.50;99.90;;;;;;5072714;28;20226;-49
2022/12/05 05:36:31;;;;;;;22.43;12.70;;;3.60;99.90;;;;;;5071187;28;20211;-49
2022/12/05 05:39:01;;;;;;;21.20;11.17;;;3.50;99.90;;;;;;5064049;28;20206;-49
2022/12/05 05:41:30;;;;;;;26.03;13.73;;;3.50;99.90;;;;;;5072472;28;20580;-49
2022/12/05 05:43:58;;;;;;;23.07;13.03;;;3.50;99.90;;;;;;5072352;28;20256;-50
2022/12/05 05:46:26;;;;;;;24.87;13.43;;;3.50;99.90;;;;;;5073221;28;20197;-50
2022/12/05 05:48:54;;;;;;;23.67;12.90;;;3.50;99.90;;;;;;5073320;28;20207;-49
2022/12/05 05:51:22;;;;;;;22.53;12.90;;;3.50;99.90;;;;;;5069419;28;20206;-49
2022/12/05 05:53:49;;;;;;;22.53;14.13;;;3.50;99.90;;;;;;5070051;28;20246;-50
2022/12/05 05:56:19;;;;;;;20.47;12.33;;;3.50;99.90;;;;;;5068780;28;20206;-49
2022/12/05 05:58:47;;;;;;;21.63;12.23;;;3.50;99.90;;;;;;5072928;28;20761;-48
2022/12/05 06:01:15;;;;;;;18.63;12.03;;;3.60;99.90;;;;;;5072952;28;20638;-49
2022/12/05 06:03:43;;;;;;;21.87;13.23;;;3.60;99.90;;;;;;5064897;28;20208;-50
2022/12/05 06:06:13;;;;;;;22.13;14.03;;;3.50;99.90;;;;;;5071609;28;20218;-48
2022/12/05 06:08:42;;;;;;;20.50;12.33;;;3.50;99.90;;;;;;5064419;28;20229;-50
2022/12/05 06:11:11;;;;;;;19.63;11.43;;;3.60;99.90;;;;;;5071792;28;20607;-48
2022/12/05 06:13:39;;;;;;;19.23;12.17;;;3.60;99.90;;;;;;5069074;28;20228;-48
2022/12/05 06:16:08;;;;;;;20.07;12.57;;;3.50;99.90;;;;;;5072647;28;20201;-49
2022/12/05 06:18:35;;;;;;;18.73;11.23;;;3.60;99.90;;;;;;5072661;28;20242;-49
2022/12/05 06:21:02;;;;;;;24.03;13.43;;;3.60;99.90;;;;;;5072911;28;20200;-50
2022/12/05 06:23:30;;;;;;;21.53;13.00;;;3.60;99.90;;;;;;5070117;28;20199;-52
2022/12/05 06:25:57;;;;;;;21.87;12.73;;;3.70;99.90;;;;;;5079214;28;20299;-49
2022/12/05 06:28:25;;;;;;;24.27;13.07;;;3.70;99.90;;;;;;5071621;28;20237;-48
2022/12/05 06:30:54;;;;;;;18.27;11.27;;;3.70;99.90;;;;;;5071881;28;20677;-50
2022/12/05 06:33:21;;;;;;;17.33;11.40;;;3.80;99.90;;;;;;5070676;28;20742;-49
2022/12/05 06:35:48;;;;;;;18.43;12.33;;;3.80;99.90;;;;;;5064206;28;20199;-50
2022/12/05 06:38:15;;;;;;;18.20;11.93;;;3.80;99.90;;;;;;5071508;28;20275;-49
2022/12/05 06:40:44;;;;;;;18.50;11.43;;;3.70;99.90;;;;;;5068149;28;20198;-49
2022/12/05 06:43:11;;;;;;;25.30;12.77;;;3.60;99.90;;;;;;5069091;28;20201;-50
2022/12/05 06:45:38;;;;;;;20.67;13.33;;;3.60;99.90;;;;;;5068911;28;20548;-50
2022/12/05 06:48:07;;;;;;;20.40;13.60;;;3.60;99.90;;;;;;5057813;28;20215;-49
2022/12/05 06:50:34;;;;;;;25.33;15.17;;;3.60;99.90;;;;;;5064489;28;20211;-50
2022/12/05 06:53:01;;;;;;;20.27;12.13;;;3.50;99.90;;;;;;5071420;28;20685;-50
2022/12/05 06:55:28;;;;;;;20.77;12.23;;;3.60;99.90;;;;;;5069779;28;20206;-49
2022/12/05 06:57:55;;;;;;;25.47;13.83;;;3.60;99.90;;;;;;5070201;28;20229;-49
2022/12/05 07:03:16;;;;;;;19.43;12.97;;;3.60;99.90;;;;;;5051745;28;21078;-50
2022/12/05 07:05:43;;;;;;;21.53;12.77;;;3.60;99.90;;;;;;5069377;28;20204;-49
2022/12/05 07:08:10;;;;;;;19.17;13.30;;;3.60;99.90;;;;;;5069405;28;20226;-48
2022/12/05 07:10:37;;;;;;;22.73;13.47;;;3.60;99.90;;;;;;5070126;28;20290;-49
2022/12/05 07:13:04;;;;;;;20.80;12.83;;;3.60;99.90;;;;;;5067365;28;20219;-49
2022/12/05 07:15:31;;;;;;;20.33;12.37;;;3.70;99.90;;;;;;5070449;28;20206;-50
2022/12/05 07:17:58;;;;;;;20.77;12.60;;;3.80;99.90;;;;;;5071639;28;20214;-49
2022/12/05 07:20:27;;;;;;;18.63;13.40;;;3.80;99.90;;;;;;5070492;28;20258;-49
2022/12/05 07:22:54;;;;;;;22.43;13.53;;;3.80;99.90;;;;;;5066091;28;20206;-50
2022/12/05 07:25:22;;;;;;;21.53;12.80;;;3.80;99.90;;;;;;5069158;28;20662;-48
2022/12/05 07:27:49;;;;;;;22.77;12.83;;;3.80;99.90;;;;;;5070957;28;20651;-49
2022/12/05 07:30:16;;;;;;;20.07;12.93;;;3.80;99.90;;;;;;5071260;28;20601;-48
2022/12/05 07:32:43;;;;;;;22.20;12.33;;;3.70;99.90;;;;;;5070083;28;20584;-49
2022/12/05 07:35:10;;;;;;;26.10;13.60;;;3.80;99.90;;;;;;5070434;28;20229;-49
2022/12/05 07:37:39;;;;;;;17.73;11.67;;;3.70;99.90;;;;;;5070495;28;20721;-48
2022/12/05 07:40:07;;;;;;;14.90;9.87;;;3.80;99.90;;;;;;5072982;28;20617;-49
2022/12/05 07:42:34;;;;;;;21.67;10.80;;;3.80;99.90;;;;;;5075872;28;20203;-49
2022/12/05 07:45:01;;;;;;;14.43;9.23;;;3.80;99.90;;;;;;5075110;28;20257;-49
2022/12/05 07:47:30;;;;;;;23.10;12.30;;;3.80;99.90;;;;;;5075348;28;20226;-49
2022/12/05 07:49:57;;;;;;;6.50;4.50;;;3.90;99.90;;;;;;5075901;28;20267;-48
2022/12/05 07:52:24;;;;;;;9.70;5.47;;;4.00;99.90;;;;;;5075497;28;20234;-50
2022/12/05 07:54:52;;;;;;;11.73;8.30;;;4.00;99.90;;;;;;5066916;28;20261;-49
2022/12/05 07:57:19;;;;;;;14.77;8.20;;;4.00;99.90;;;;;;5075143;28;20222;-48
2022/12/05 07:59:46;;;;;;;19.37;9.50;;;4.00;99.90;;;;;;5075208;28;20202;-49
2022/12/05 08:02:13;;;;;;;16.57;9.73;;;4.10;99.90;;;;;;5075619;28;20203;-49
2022/12/05 08:04:44;;;;;;;18.27;9.90;;;4.10;99.90;;;;;;5074187;28;20249;-49
2022/12/05 08:07:11;;;;;;;16.42;11.23;;;4.00;99.90;;;;;;5059823;28;20461;-48
2022/12/05 08:09:38;;;;;;;15.00;10.07;;;4.00;99.90;;;;;;5071859;28;20205;-49
2022/12/05 08:12:07;;;;;;;16.10;9.87;;;4.10;99.90;;;;;;5058853;28;20208;-49
2022/12/05 08:14:34;;;;;;;14.47;10.37;;;4.10;99.90;;;;;;5064782;28;20223;-49
2022/12/05 08:17:01;;;;;;;17.27;11.23;;;4.10;99.90;;;;;;5055014;28;20218;-48
2022/12/05 08:19:28;;;;;;;14.70;10.23;;;4.10;99.90;;;;;;5073245;28;20207;-49
2022/12/05 08:21:56;;;;;;;18.97;10.93;;;4.10;99.90;;;;;;5065485;28;20230;-49
2022/12/05 08:24:23;;;;;;;15.13;10.67;;;4.10;99.90;;;;;;5074001;28;20546;-49
2022/12/05 08:26:51;;;;;;;20.40;11.43;;;4.10;99.90;;;;;;5074917;28;20234;-50
2022/12/05 08:29:21;;;;;;;15.47;9.67;;;4.10;99.90;;;;;;5067671;28;20229;-49
2022/12/05 08:31:50;;;;;;;37.20;16.33;;;4.10;99.90;;;;;;5072522;28;20580;-49
2022/12/05 08:34:18;;;;;;;24.67;12.57;;;4.00;99.90;;;;;;5072508;28;20226;-49
2022/12/05 08:36:46;;;;;;;31.47;13.57;;;4.10;99.90;;;;;;5073182;28;20235;-49
2022/12/05 08:39:15;;;;;;;23.00;11.23;;;4.10;99.90;;;;;;5074002;28;20199;-49
2022/12/05 08:41:43;;;;;;;11.80;6.63;;;4.20;99.90;;;;;;5074044;28;20199;-49
2022/12/05 08:44:15;;;;;;;10.53;7.50;;;4.20;99.90;;;;;;5071784;28;20285;-48
2022/12/05 08:46:44;;;;;;;11.97;7.07;;;4.20;99.90;;;;;;5064333;28;20720;-50
2022/12/05 08:49:12;;;;;;;5.40;4.90;;;4.30;99.90;;;;;;5070445;28;20260;-49
2022/12/05 08:51:39;;;;;;;6.60;4.40;;;4.30;99.90;;;;;;5069896;28;20256;-50
2022/12/05 08:54:07;;;;;;;5.53;4.27;;;4.20;99.90;;;;;;5065694;28;20265;-49
2022/12/05 08:56:34;;;;;;;4.27;3.57;;;4.20;99.90;;;;;;5071967;28;20268;-49
2022/12/05 08:59:02;;;;;;;6.00;4.17;;;4.30;99.90;;;;;;5073195;28;20194;-49
2022/12/05 09:01:30;;;;;;;4.40;3.77;;;4.20;99.90;;;;;;5069788;28;20284;-48
2022/12/05 09:04:00;;;;;;;4.63;4.23;;;4.20;99.90;;;;;;5071576;28;20227;-49
2022/12/05 09:06:28;;;;;;;4.63;3.73;;;4.20;99.90;;;;;;5073775;28;20713;-49
2022/12/05 09:08:56;;;;;;;4.13;2.97;;;4.20;99.90;;;;;;5071500;28;20751;-49
2022/12/05 09:11:25;;;;;;;2.77;2.53;;;4.20;99.90;;;;;;5071229;28;20203;-50
2022/12/05 09:13:53;;;;;;;2.53;2.33;;;4.20;99.90;;;;;;5069634;28;20218;-48
2022/12/05 09:16:23;;;;;;;2.53;2.33;;;4.20;99.90;;;;;;5072894;28;20217;-49
2022/12/05 09:18:51;;;;;;;2.90;2.00;;;4.20;99.90;;;;;;5069783;28;20276;-50
2022/12/05 09:21:21;;;;;;;2.90;2.40;;;4.20;99.90;;;;;;5072773;28;20256;-49
2022/12/05 09:23:49;;;;;;;3.77;1.77;;;4.20;99.90;;;;;;5071032;28;20192;-50
2022/12/05 09:26:19;;;;;;;1.80;1.80;;;4.20;99.90;;;;;;5065192;28;20206;-51
2022/12/05 09:28:46;;;;;;;2.10;2.00;;;4.20;99.90;;;;;;5065724;28;20308;-50
2022/12/05 09:31:15;;;;;;;2.83;1.93;;;4.20;99.90;;;;;;5067011;28;20204;-49
2022/12/05 09:33:43;;;;;;;3.17;1.77;;;4.20;99.90;;;;;;5066403;28;20218;-49
2022/12/05 09:36:13;;;;;;;3.90;2.03;;;4.20;99.90;;;;;;5070399;28;20210;-49
2022/12/05 09:38:41;;;;;;;2.47;1.77;;;4.20;99.90;;;;;;5072393;28;20245;-48
2022/12/05 09:41:20;;;;;;;3.50;1.97;;;4.20;99.90;;;;;;5069529;28;20269;-50
2022/12/05 09:43:55;;;;;;;2.97;2.73;;;4.20;99.90;;;;;;5072006;28;20204;-50
2022/12/05 09:46:35;;;;;;;4.30;2.13;;;4.20;99.90;;;;;;5072761;28;20618;-50
2022/12/05 09:49:04;;;;;;;2.50;2.30;;;4.30;99.90;;;;;;5071026;28;20202;-50
2022/12/05 09:51:32;;;;;;;4.03;2.80;;;4.30;99.90;;;;;;5071392;28;20260;-49
2022/12/05 09:54:00;;;;;;;3.67;2.13;;;4.30;99.90;;;;;;5070203;28;20257;-50
2022/12/05 09:56:30;;;;;;;4.17;3.00;;;4.30;99.90;;;;;;5062031;28;20736;-49
2022/12/05 09:58:59;;;;;;;4.63;3.20;;;4.30;99.90;;;;;;5069179;28;20240;-50
2022/12/05 10:01:34;;;;;;;4.77;3.00;;;4.30;99.90;;;;;;5070063;28;20207;-48
2022/12/05 10:04:24;;;;;;;3.60;3.30;;;4.30;99.90;;;;;;5070212;28;20258;-48
2022/12/05 10:07:00;;;;;;;3.80;3.10;;;4.30;99.90;;;;;;5070784;28;20778;-50
2022/12/05 10:09:48;;;;;;;6.10;5.00;;;4.30;99.90;;;;;;5089259;28;20229;-49
2022/12/05 10:12:27;;;;;;;8.60;4.87;;;4.30;99.90;;;;;;5072283;28;20210;-49
2022/12/05 10:15:03;;;;;;;12.33;5.60;;;4.30;99.90;;;;;;5071455;28;20245;-50
2022/12/05 10:17:35;;;;;;;18.03;7.13;;;4.40;99.90;;;;;;5070429;28;20774;-50
2022/12/05 10:20:09;;;;;;;18.23;9.60;;;4.40;99.90;;;;;;5070356;28;20199;-50
2022/12/05 10:22:43;;;;;;;25.63;12.33;;;4.40;99.90;;;;;;5062850;28;20208;-48
2022/12/05 10:25:14;;;;;;;18.30;10.20;;;4.40;99.90;;;;;;5071316;28;20233;-48
2022/12/05 10:27:45;;;;;;;18.33;12.23;;;4.40;99.90;;;;;;5071613;28;20288;-49
2022/12/05 10:30:15;;;;;;;19.00;11.27;;;4.50;99.90;;;;;;5072205;28;20198;-49
2022/12/05 10:32:51;;;;;;;20.63;12.27;;;4.40;99.90;;;;;;5072223;28;20199;-48
2022/12/05 10:35:20;;;;;;;18.23;12.83;;;4.40;99.90;;;;;;5071323;28;20605;-50
2022/12/05 10:37:50;;;;;;;19.13;13.30;;;4.40;99.90;;;;;;5071048;28;20230;-49
2022/12/05 10:40:19;;;;;;;16.70;11.40;;;4.30;99.90;;;;;;5068883;28;20204;-50
2022/12/05 10:42:48;;;;;;;23.13;12.50;;;4.20;99.90;;;;;;5070871;28;20211;-49
2022/12/05 10:45:19;;;;;;;20.60;12.47;;;4.20;99.90;;;;;;5069806;28;20210;-50
2022/12/05 10:47:46;;;;;;;20.23;11.87;;;4.10;99.90;;;;;;5069368;28;20716;-50
2022/12/05 10:50:25;;;;;;;17.80;10.27;;;4.20;99.90;;;;;;5064692;28;20667;-49
2022/12/05 10:52:53;;;;;;;14.37;9.63;;;4.20;99.90;;;;;;5068348;28;20609;-47
2022/12/05 10:55:22;;;;;;;16.50;9.80;;;4.30;99.90;;;;;;5067868;28;20276;-50
2022/12/05 10:57:51;;;;;;;11.67;8.33;;;4.30;99.90;;;;;;5062780;28;20229;-50
2022/12/05 11:00:22;;;;;;;13.97;9.50;;;4.30;99.90;;;;;;5071820;28;20576;-49
2022/12/05 11:02:50;;;;;;;13.53;9.53;;;4.30;99.90;;;;;;5070667;28;20203;-49
2022/12/05 11:05:28;;;;;;;12.47;8.60;;;4.40;99.90;;;;;;5071078;28;20320;-49
2022/12/05 11:07:58;;;;;;;13.13;9.23;;;4.50;99.90;;;;;;5061406;28;20228;-49
2022/12/05 11:10:36;;;;;;;8.93;7.00;;;4.50;99.90;;;;;;5062288;28;20403;-49
2022/12/05 11:13:15;;;;;;;8.57;6.93;;;4.60;99.90;;;;;;5062903;28;20286;-49
2022/12/05 11:15:45;;;;;;;5.57;4.60;;;4.50;99.90;;;;;;5070990;28;20223;-48
2022/12/05 11:18:25;;;;;;;8.70;5.23;;;4.40;99.90;;;;;;5068922;28;20257;-50
2022/12/05 11:20:52;;;;;;;5.67;4.37;;;4.40;99.90;;;;;;5071508;28;20203;-49
2022/12/05 11:23:27;;;;;;;5.37;4.07;;;4.40;99.90;;;;;;5063824;28;20256;-49
2022/12/05 11:25:57;;;;;;;7.73;4.43;;;4.30;99.90;;;;;;5063139;28;20191;-50
2022/12/05 11:28:33;;;;;;;6.17;4.57;;;4.40;99.90;;;;;;5068673;28;20235;-49
2022/12/05 11:31:02;;;;;;;6.83;4.57;;;4.40;99.90;;;;;;5071288;28;20198;-49
2022/12/05 11:33:31;;;;;;;7.32;4.68;;;4.40;99.90;;;;;;5070308;28;20430;-50
2022/12/05 11:36:04;;;;;;;4.93;3.80;;;4.50;99.90;;;;;;5068593;28;20222;-50
2022/12/05 11:38:33;;;;;;;3.93;3.37;;;4.50;99.90;;;;;;5070570;28;20219;-49
2022/12/05 11:41:14;;;;;;;4.20;3.80;;;4.50;99.90;;;;;;5069886;28;20206;-49
2022/12/05 11:44:13;;;;;;;3.50;3.10;;;4.30;99.90;;;;;;5067152;28;20206;-49
2022/12/05 11:46:51;;;;;;;3.83;3.30;;;4.30;99.90;;;;;;5056475;28;20282;-50
2022/12/05 11:49:44;;;;;;;4.07;2.87;;;4.40;99.90;;;;;;5071116;28;20198;-49
2022/12/05 11:52:24;;;;;;;2.83;2.50;;;4.30;99.90;;;;;;5070778;28;20687;-49
2022/12/05 11:54:56;;;;;;;3.13;2.27;;;4.30;99.90;;;;;;5070682;28;20221;-50
2022/12/05 11:57:44;;;;;;;2.57;2.37;;;4.20;99.90;;;;;;5069844;28;20704;-49
2022/12/05 12:00:19;;;;;;;4.13;3.13;;;4.10;99.90;;;;;;5062933;28;20207;-49
2022/12/05 12:03:20;;;;;;;2.77;1.83;;;4.20;99.90;;;;;;5070402;28;20244;-50
2022/12/05 12:05:56;;;;;;;1.97;1.77;;;4.30;99.90;;;;;;5060518;28;20205;-49
2022/12/05 12:08:26;;;;;;;2.03;1.70;;;4.30;99.90;;;;;;5067703;28;20234;-50
2022/12/05 12:11:05;;;;;;;1.67;1.57;;;4.30;99.90;;;;;;5068892;28;20580;-50
2022/12/05 12:14:00;;;;;;;2.33;1.63;;;4.20;99.90;;;;;;5071192;28;20743;-50
2022/12/05 12:16:35;;;;;;;1.67;1.33;;;4.20;99.90;;;;;;5070765;28;20223;-49
2022/12/05 12:19:38;;;;;;;2.50;1.83;;;4.30;99.90;;;;;;5051192;28;20207;-50
2022/12/05 12:22:20;;;;;;;2.00;1.47;;;4.20;99.90;;;;;;5057170;28;20290;-49
2022/12/05 12:25:03;;;;;;;1.87;1.77;;;4.20;99.90;;;;;;5067987;28;20697;-49
2022/12/05 12:27:43;;;;;;;1.80;1.60;;;4.20;99.90;;;;;;5073238;28;20270;-51
2022/12/05 12:30:16;;;;;;;1.67;1.57;;;4.30;99.90;;;;;;5074304;28;20199;-50
2022/12/05 12:32:53;;;;;;;1.50;1.00;;;4.30;99.90;;;;;;5074118;28;20202;-48
2022/12/05 12:35:31;;;;;;;1.30;1.03;;;4.30;99.90;;;;;;5073801;28;20226;-50
2022/12/05 12:38:12;;;;;;;0.70;0.70;;;4.40;99.90;;;;;;5073098;28;20226;-48
2022/12/05 12:40:48;;;;;;;1.33;0.80;;;4.40;99.90;;;;;;5074121;28;20609;-49
2022/12/05 12:43:31;;;;;;;0.70;0.70;;;4.50;99.90;;;;;;5073264;28;20220;-50
2022/12/05 12:46:15;;;;;;;1.07;0.70;;;4.40;99.90;;;;;;5073948;28;20195;-48
2022/12/05 12:48:58;;;;;;;0.57;0.57;;;4.30;99.90;;;;;;5074128;28;20230;-49
2022/12/05 12:51:26;;;;;;;1.33;0.43;;;4.40;99.90;;;;;;5073946;28;20210;-50
2022/12/05 12:54:26;;;;;;;2.87;0.50;;;4.40;99.90;;;;;;5072002;28;20211;-50
2022/12/05 12:56:59;;;;;;;0.63;0.40;;;4.50;99.90;;;;;;5071958;28;20287;-49
2022/12/05 12:59:47;;;;;;;3.67;1.07;;;4.50;99.90;;;;;;5073799;28;20213;-49
2022/12/05 13:02:22;;;;;;;0.90;0.50;;;4.50;99.90;;;;;;5052959;28;20216;-50
2022/12/05 13:04:54;;;;;;;0.70;0.67;;;4.60;99.90;;;;;;5053109;28;20674;-50
2022/12/05 13:07:28;;;;;;;0.43;0.37;;;4.50;99.90;;;;;;5071217;28;20704;-49
2022/12/05 13:09:59;;;;;;;0.40;0.40;;;4.60;99.90;;;;;;5073504;28;20261;-50
2022/12/05 13:12:29;;;;;;;0.60;0.60;;;4.70;99.90;;;;;;5073679;28;20249;-49
2022/12/05 13:15:00;;;;;;;0.50;0.50;;;4.70;99.90;;;;;;5072868;28;20619;-50
2022/12/05 13:17:31;;;;;;;0.50;0.47;;;4.60;99.90;;;;;;5073409;28;20232;-50